createdAt,value
2023-01-18T00:01:09.873Z,12.05
2023-01-18T00:04:51.773Z,6.90
2023-01-18T00:08:35.349Z,12.10
2023-01-18T00:12:17.214Z,7.68
2023-01-18T00:16:21.695Z,10.70
2023-01-18T00:20:03.903Z,8.73
2023-01-18T00:23:45.914Z,15.20
2023-01-18T00:27:27.767Z,11.90
2023-01-18T00:31:15.467Z,17.23
2023-01-18T00:34:57.354Z,16.25
2023-01-18T00:38:39.231Z,13.30
2023-01-18T00:42:39.484Z,10.57
2023-01-18T00:46:24.571Z,13.98
2023-01-18T00:50:07.443Z,8.88
2023-01-18T00:53:52.374Z,10.75
2023-01-18T00:57:34.216Z,7.38
2023-01-18T01:01:16.696Z,8.45
2023-01-18T01:05:17.194Z,8.77
2023-01-18T01:08:59.036Z,12.63
2023-01-18T01:12:59.485Z,9.88
2023-01-18T01:17:00.106Z,13.32
2023-01-18T01:21:00.654Z,16.45
2023-01-18T01:25:00.833Z,11.60
2023-01-18T01:28:49.918Z,14.93
2023-01-18T01:32:31.949Z,9.88
2023-01-18T01:36:16.564Z,14.05
2023-01-18T01:39:58.457Z,16.73
2023-01-18T01:43:49.276Z,10.95
2023-01-18T01:47:44.686Z,11.23
2023-01-18T01:51:26.751Z,17.67
2023-01-18T01:55:31.807Z,16.48
2023-01-18T01:59:15.051Z,11.70
2023-01-18T02:03:03.453Z,9.82
2023-01-18T02:06:45.343Z,14.88
2023-01-18T02:10:28.689Z,9.25
2023-01-18T02:14:15.701Z,10.88
2023-01-18T02:18:10.845Z,8.90
2023-01-18T02:22:27.728Z,9.52
2023-01-18T02:26:46.867Z,10.30
2023-01-18T02:30:39.298Z,10.40
2023-01-18T02:34:27.107Z,11.05
2023-01-18T02:38:14.802Z,8.90
2023-01-18T02:42:21.649Z,11.55
2023-01-18T02:46:25.250Z,13.18
2023-01-18T02:50:07.566Z,13.30
2023-01-18T02:53:49.742Z,16.88
2023-01-18T02:57:32.276Z,10.65
2023-01-18T03:01:29.478Z,10.13
2023-01-18T03:05:12.530Z,11.13
2023-01-18T03:08:56.259Z,10.45
2023-01-18T03:12:49.559Z,8.25
2023-01-18T03:16:40.353Z,13.35
2023-01-18T03:20:27.563Z,10.27
2023-01-18T03:24:10.790Z,7.22
2023-01-18T03:28:13.708Z,9.05
2023-01-18T03:32:28.803Z,10.98
2023-01-18T03:36:38.771Z,7.90
2023-01-18T03:40:26.382Z,9.27
2023-01-18T03:44:14.182Z,11.32
2023-01-18T03:47:56.035Z,8.40
2023-01-18T03:51:59.553Z,6.85
2023-01-18T03:55:50.358Z,9.57
2023-01-18T03:59:35.738Z,8.13
2023-01-18T04:03:17.646Z,9.77
2023-01-18T04:06:59.613Z,6.70
2023-01-18T04:10:41.476Z,7.80
2023-01-18T04:14:23.382Z,8.82
2023-01-18T04:18:05.527Z,9.75
2023-01-18T04:21:47.419Z,9.07
2023-01-18T04:25:29.407Z,9.40
2023-01-18T04:29:11.297Z,15.93
2023-01-18T04:32:53.376Z,14.68
2023-01-18T04:36:35.219Z,9.07
2023-01-18T04:40:17.239Z,6.35
2023-01-18T04:43:59.084Z,10.02
2023-01-18T04:47:40.944Z,8.23
2023-01-18T04:51:25.849Z,8.13
2023-01-18T04:55:08.398Z,10.23
2023-01-18T04:58:54.115Z,14.00
2023-01-18T05:02:36.018Z,10.88
2023-01-18T05:06:19.961Z,10.80
2023-01-18T05:10:01.905Z,7.20
2023-01-18T05:13:44.473Z,8.05
2023-01-18T05:17:27.633Z,10.98
2023-01-18T05:21:09.859Z,8.90
2023-01-18T05:24:51.735Z,8.35
2023-01-18T05:28:33.580Z,6.47
2023-01-18T05:32:15.467Z,8.80
2023-01-18T05:35:57.351Z,7.78
2023-01-18T05:39:39.199Z,7.95
2023-01-18T05:43:23.061Z,7.38
2023-01-18T05:47:04.972Z,8.57
2023-01-18T05:50:48.715Z,5.93
2023-01-18T05:54:30.607Z,9.98
2023-01-18T05:58:12.441Z,9.25
2023-01-18T06:01:54.305Z,7.97
2023-01-18T06:05:36.202Z,10.82
2023-01-18T06:09:18.047Z,10.43
2023-01-18T06:13:00.265Z,7.07
2023-01-18T06:16:42.368Z,6.65
2023-01-18T06:20:24.993Z,8.57
2023-01-18T06:24:07.133Z,5.80
2023-01-18T06:27:49.002Z,7.03
2023-01-18T06:31:30.935Z,4.65
2023-01-18T06:35:12.902Z,4.53
2023-01-18T06:38:54.718Z,10.00
2023-01-18T06:42:36.588Z,7.15
2023-01-18T06:46:19.698Z,8.43
2023-01-18T06:50:01.698Z,6.95
2023-01-18T06:53:43.524Z,7.35
2023-01-18T06:57:25.409Z,5.97
2023-01-18T07:01:07.739Z,7.68
2023-01-18T07:04:49.688Z,7.95
2023-01-18T07:08:32.119Z,7.75
2023-01-18T07:12:14.227Z,9.38
2023-01-18T07:16:01.972Z,6.90
2023-01-18T07:19:44.897Z,5.00
2023-01-18T07:23:28.224Z,6.25
2023-01-18T07:27:10.061Z,7.53
2023-01-18T07:30:51.884Z,10.20
2023-01-18T07:34:33.851Z,10.07
2023-01-18T07:38:15.747Z,7.82
2023-01-18T07:41:57.622Z,15.30
2023-01-18T07:45:39.464Z,9.13
2023-01-18T07:49:21.381Z,11.05
2023-01-18T07:53:08.638Z,4.95
2023-01-18T07:56:50.539Z,7.90
2023-01-18T08:00:32.399Z,6.35
2023-01-18T08:04:14.287Z,9.13
2023-01-18T08:07:56.120Z,8.98
2023-01-18T08:11:38.027Z,9.55
2023-01-18T08:15:20.445Z,7.93
2023-01-18T08:19:02.347Z,10.02
2023-01-18T08:22:44.205Z,11.63
2023-01-18T08:26:26.076Z,10.13
2023-01-18T08:30:08.841Z,9.10
2023-01-18T08:33:51.149Z,7.25
2023-01-18T08:37:33.305Z,9.68
2023-01-18T08:41:15.155Z,14.35
2023-01-18T08:44:57.023Z,13.95
2023-01-18T08:48:39.045Z,7.82
2023-01-18T08:52:21.017Z,16.33
2023-01-18T08:56:06.817Z,7.05
2023-01-18T08:59:48.679Z,9.35
2023-01-18T09:03:30.564Z,10.63
2023-01-18T09:07:12.397Z,3.83
2023-01-18T09:10:54.425Z,4.93
2023-01-18T09:14:36.541Z,4.10
2023-01-18T09:18:18.410Z,6.38
2023-01-18T09:22:00.288Z,1.92
2023-01-18T09:25:42.145Z,4.13
2023-01-18T09:29:24.055Z,5.13
2023-01-18T09:33:05.904Z,5.82
2023-01-18T09:36:52.268Z,3.92
2023-01-18T09:40:44.037Z,5.30
2023-01-18T09:44:36.117Z,1.60
2023-01-18T09:48:29.615Z,3.45
2023-01-18T09:52:30.494Z,2.85
2023-01-18T09:56:21.094Z,3.40
2023-01-18T10:00:05.053Z,3.58
2023-01-18T10:03:58.579Z,2.70
2023-01-18T10:08:04.982Z,5.38
2023-01-18T10:11:55.008Z,3.05
2023-01-18T10:15:38.034Z,2.20
2023-01-18T10:19:25.798Z,1.30
2023-01-18T10:23:34.938Z,3.92
2023-01-18T10:27:28.566Z,6.15
2023-01-18T10:31:25.478Z,1.30
2023-01-18T10:35:17.836Z,3.13
2023-01-18T10:39:05.833Z,4.50
2023-01-18T10:42:49.971Z,3.97
2023-01-18T10:46:32.232Z,2.55
2023-01-18T10:50:42.390Z,3.10
2023-01-18T10:54:27.260Z,2.13
2023-01-18T10:58:12.075Z,2.60
2023-01-18T11:01:58.022Z,2.60
2023-01-18T11:05:45.179Z,4.85
2023-01-18T11:09:59.591Z,2.67
2023-01-18T11:13:44.426Z,1.88
2023-01-18T11:17:26.367Z,2.30
2023-01-18T11:21:11.898Z,2.17
2023-01-18T11:24:53.793Z,5.70
2023-01-18T11:28:59.603Z,3.67
2023-01-18T11:32:41.551Z,2.63
2023-01-18T11:36:38.899Z,1.52
2023-01-18T11:40:21.357Z,2.00
2023-01-18T11:44:13.405Z,3.22
2023-01-18T11:48:27.941Z,3.55
2023-01-18T11:52:51.175Z,4.05
2023-01-18T11:56:48.382Z,3.35
2023-01-18T12:00:40.007Z,3.75
2023-01-18T12:04:43.109Z,3.17
2023-01-18T12:08:38.356Z,4.55
2023-01-18T12:12:41.211Z,2.75
2023-01-18T12:16:43.795Z,2.60
2023-01-18T12:21:01.617Z,3.50
2023-01-18T12:25:03.662Z,1.85
2023-01-18T12:28:59.875Z,5.18
2023-01-18T12:33:08.850Z,1.63
2023-01-18T12:37:13.417Z,1.67
2023-01-18T12:41:17.673Z,4.82
2023-01-18T12:45:31.753Z,2.88
2023-01-18T12:49:19.211Z,1.20
2023-01-18T12:53:06.077Z,1.45
2023-01-18T12:56:53.221Z,5.75
2023-01-18T13:00:39.686Z,2.17
2023-01-18T13:04:32.501Z,4.28
2023-01-18T13:08:23.924Z,1.75
2023-01-18T13:12:07.117Z,5.60
2023-01-18T13:16:02.651Z,2.17
2023-01-18T13:20:05.045Z,4.18
2023-01-18T13:24:08.770Z,5.05
2023-01-18T13:28:16.350Z,4.78
2023-01-18T13:31:58.548Z,3.13
2023-01-18T13:35:51.436Z,3.63
2023-01-18T13:39:35.487Z,2.00
2023-01-18T13:43:35.828Z,3.25
2023-01-18T13:47:36.061Z,5.40
2023-01-18T13:51:36.711Z,2.38
2023-01-18T13:55:33.794Z,1.83
2023-01-18T13:59:23.688Z,1.90
2023-01-18T14:03:15.859Z,1.52
2023-01-18T14:07:01.521Z,2.65
2023-01-18T14:10:49.466Z,1.90
2023-01-18T14:14:51.223Z,2.40
2023-01-18T14:18:33.354Z,3.90
2023-01-18T14:22:30.331Z,2.65
2023-01-18T14:26:18.475Z,2.28
2023-01-18T14:30:25.669Z,1.23
2023-01-18T14:34:29.907Z,0.75
2023-01-18T14:38:18.196Z,2.45
2023-01-18T14:42:04.264Z,2.60
2023-01-18T14:46:21.183Z,2.55
2023-01-18T14:50:05.120Z,6.30
2023-01-18T14:53:52.863Z,6.75
2023-01-18T14:57:34.779Z,4.25
2023-01-18T15:01:28.160Z,3.20
2023-01-18T15:05:20.939Z,2.72
2023-01-18T15:09:05.794Z,7.40
2023-01-18T15:12:52.375Z,4.28
2023-01-18T15:16:35.092Z,6.15
2023-01-18T15:20:17.428Z,3.97
2023-01-18T15:24:13.346Z,8.65
2023-01-18T15:27:59.820Z,7.18
2023-01-18T15:31:51.587Z,4.30
2023-01-18T15:35:33.592Z,5.65
2023-01-18T15:39:16.152Z,4.78
2023-01-18T15:43:17.740Z,7.10
2023-01-18T15:46:59.946Z,5.82
2023-01-18T15:50:48.359Z,10.18
2023-01-18T15:54:31.130Z,3.08
2023-01-18T15:58:23.563Z,5.15
2023-01-18T16:02:18.693Z,6.93
2023-01-18T16:06:34.564Z,8.02
2023-01-18T16:10:28.318Z,8.98
2023-01-18T16:14:28.527Z,7.75
2023-01-18T16:18:13.701Z,9.48
2023-01-18T16:22:01.132Z,16.30
2023-01-18T16:25:43.629Z,13.88
2023-01-18T16:29:25.994Z,16.58
2023-01-18T16:33:10.102Z,12.35
2023-01-18T16:36:53.477Z,7.75
2023-01-18T16:40:38.604Z,9.65
2023-01-18T16:44:21.262Z,10.63
2023-01-18T16:48:04.479Z,15.45
2023-01-18T16:51:47.536Z,12.70
2023-01-18T16:55:29.493Z,9.50
2023-01-18T16:59:19.448Z,9.18
2023-01-18T17:03:01.446Z,9.20
2023-01-18T17:06:44.905Z,13.32
2023-01-18T17:10:39.066Z,6.13
2023-01-18T17:14:21.585Z,12.00
2023-01-18T17:18:04.904Z,9.20
2023-01-18T17:21:48.799Z,8.45
2023-01-18T17:25:30.679Z,8.32
2023-01-18T17:29:17.986Z,10.07
2023-01-18T17:33:00.739Z,12.50
2023-01-18T17:36:42.987Z,8.40
2023-01-18T17:40:38.180Z,6.63
2023-01-18T17:44:27.022Z,12.13
2023-01-18T17:48:15.205Z,7.88
2023-01-18T17:51:57.060Z,10.52
2023-01-18T17:55:40.670Z,7.97
2023-01-18T17:59:22.568Z,16.13
2023-01-18T18:03:04.898Z,10.93
2023-01-18T18:06:54.113Z,13.90
2023-01-18T18:10:36.409Z,10.68
2023-01-18T18:14:18.287Z,11.55
2023-01-18T18:18:00.172Z,12.98
2023-01-18T18:21:43.037Z,12.43
2023-01-18T18:25:24.858Z,26.52
2023-01-18T18:29:07.606Z,17.92
2023-01-18T18:32:49.475Z,18.13
2023-01-18T18:36:31.550Z,18.70
2023-01-18T18:40:13.825Z,14.60
2023-01-18T18:43:55.727Z,13.45
2023-01-18T18:47:38.890Z,13.20
2023-01-18T18:51:21.674Z,25.40
2023-01-18T18:55:03.694Z,72.25
2023-01-18T18:58:48.114Z,89.60
2023-01-18T19:02:30.687Z,48.63
2023-01-18T19:06:12.864Z,14.23
2023-01-18T19:09:54.738Z,11.63
2023-01-18T19:13:37.690Z,12.65
2023-01-18T19:17:29.684Z,21.25
2023-01-18T19:21:12.823Z,43.10
2023-01-18T19:24:54.803Z,15.93
2023-01-18T19:28:36.727Z,17.35
2023-01-18T19:32:18.586Z,20.70
2023-01-18T19:36:08.704Z,12.85
2023-01-18T19:39:50.545Z,12.35
2023-01-18T19:43:32.493Z,10.50
2023-01-18T19:47:14.351Z,12.82
2023-01-18T19:51:12.944Z,7.80
2023-01-18T19:55:03.284Z,11.73
2023-01-18T19:58:45.104Z,12.23
2023-01-18T20:02:27.161Z,9.57
2023-01-18T20:06:10.801Z,8.93
2023-01-18T20:09:52.734Z,9.95
2023-01-18T20:13:36.291Z,13.27
2023-01-18T20:17:18.195Z,10.93
2023-01-18T20:21:12.061Z,8.77
2023-01-18T20:24:54.495Z,8.93
2023-01-18T20:28:36.681Z,6.28
2023-01-18T20:32:18.850Z,4.78
2023-01-18T20:36:02.553Z,7.32
2023-01-18T20:39:44.488Z,7.30
2023-01-18T20:43:26.369Z,7.32
2023-01-18T20:47:08.257Z,9.68
2023-01-18T20:50:50.177Z,8.10
2023-01-18T20:54:32.809Z,9.32
2023-01-18T20:58:16.071Z,7.57
2023-01-18T21:01:58.073Z,9.38
2023-01-18T21:05:42.960Z,9.20
2023-01-18T21:09:25.898Z,8.93
2023-01-18T21:13:11.831Z,6.18
2023-01-18T21:16:53.730Z,8.38
2023-01-18T21:20:35.697Z,6.65
2023-01-18T21:24:17.566Z,6.05
2023-01-18T21:27:59.649Z,8.93
2023-01-18T21:31:41.777Z,10.07
2023-01-18T21:35:23.774Z,11.70
2023-01-18T21:39:05.724Z,10.23
2023-01-18T21:43:06.362Z,10.43
2023-01-18T21:46:51.005Z,9.02
2023-01-18T21:50:51.803Z,10.10
2023-01-18T21:54:33.705Z,6.95
2023-01-18T21:58:34.344Z,6.32
2023-01-18T22:02:16.959Z,7.55
2023-01-18T22:06:01.120Z,9.38
2023-01-18T22:09:47.166Z,9.48
2023-01-18T22:13:34.275Z,20.33
2023-01-18T22:17:16.462Z,12.40
2023-01-18T22:20:58.469Z,10.02
2023-01-18T22:24:40.516Z,8.48
2023-01-18T22:28:22.384Z,9.60
2023-01-18T22:32:04.389Z,9.75
2023-01-18T22:35:46.269Z,8.57
2023-01-18T22:39:28.119Z,9.43
2023-01-18T22:43:09.961Z,9.20
2023-01-18T22:46:52.233Z,6.25
2023-01-18T22:50:34.108Z,11.95
2023-01-18T22:54:16.086Z,5.80
2023-01-18T22:57:58.464Z,7.68
2023-01-18T23:01:40.460Z,7.70
2023-01-18T23:05:22.328Z,8.45
2023-01-18T23:09:04.272Z,7.50
2023-01-18T23:12:46.130Z,9.18
2023-01-18T23:16:46.804Z,7.28
2023-01-18T23:20:28.837Z,10.25
2023-01-18T23:24:10.782Z,11.48
2023-01-18T23:27:52.642Z,11.90
2023-01-18T23:31:34.751Z,10.57
2023-01-18T23:35:16.673Z,11.77
2023-01-18T23:39:16.968Z,9.38
2023-01-18T23:43:17.583Z,13.18
2023-01-18T23:47:18.091Z,10.52
2023-01-18T23:51:18.387Z,10.77
2023-01-18T23:55:00.835Z,11.95
2023-01-18T23:58:42.826Z,12.93
